sensor_id;sensor_type;location;lat;lon;timestamp;P1;durP1;ratioP1;P2;durP2;ratioP2
68176;SDS011;56478;50.982;7.032;2023-04-03T00:01:12;3.90;;;3.60;;
68176;SDS011;56478;50.982;7.032;2023-04-03T00:03:38;5.38;;;3.80;;
68176;SDS011;56478;50.982;7.032;2023-04-03T00:06:04;4.85;;;3.70;;
68176;SDS011;56478;50.982;7.032;2023-04-03T00:10:59;3.55;;;3.25;;
68176;SDS011;56478;50.982;7.032;2023-04-03T00:13:24;4.05;;;3.60;;
68176;SDS011;56478;50.982;7.032;2023-04-03T00:15:50;4.20;;;3.58;;
68176;SDS011;56478;50.982;7.032;2023-04-03T00:18:16;4.78;;;3.75;;
68176;SDS011;56478;50.982;7.032;2023-04-03T00:20:42;3.95;;;3.53;;
68176;SDS011;56478;50.982;7.032;2023-04-03T00:23:07;7.55;;;3.83;;
68176;SDS011;56478;50.982;7.032;2023-04-03T00:25:33;4.60;;;3.85;;
68176;SDS011;56478;50.982;7.032;2023-04-03T00:27:58;5.72;;;3.53;;
68176;SDS011;56478;50.982;7.032;2023-04-03T00:30:24;5.03;;;3.70;;
68176;SDS011;56478;50.982;7.032;2023-04-03T00:32:50;3.97;;;3.58;;
68176;SDS011;56478;50.982;7.032;2023-04-03T00:35:17;4.72;;;3.60;;
68176;SDS011;56478;50.982;7.032;2023-04-03T00:37:44;3.60;;;3.30;;
68176;SDS011;56478;50.982;7.032;2023-04-03T00:40:11;3.55;;;3.25;;
68176;SDS011;56478;50.982;7.032;2023-04-03T00:42:39;4.07;;;3.55;;
68176;SDS011;56478;50.982;7.032;2023-04-03T00:47:30;3.67;;;3.10;;
68176;SDS011;56478;50.982;7.032;2023-04-03T00:49:56;3.67;;;3.20;;
68176;SDS011;56478;50.982;7.032;2023-04-03T00:52:23;3.63;;;3.35;;
68176;SDS011;56478;50.982;7.032;2023-04-03T00:54:54;4.43;;;3.20;;
68176;SDS011;56478;50.982;7.032;2023-04-03T00:57:23;3.38;;;3.08;;
68176;SDS011;56478;50.982;7.032;2023-04-03T00:59:50;4.18;;;3.38;;
68176;SDS011;56478;50.982;7.032;2023-04-03T01:02:19;9.10;;;3.80;;
68176;SDS011;56478;50.982;7.032;2023-04-03T01:04:45;3.72;;;3.42;;
68176;SDS011;56478;50.982;7.032;2023-04-03T01:07:15;4.13;;;3.38;;
68176;SDS011;56478;50.982;7.032;2023-04-03T01:09:44;3.50;;;3.20;;
68176;SDS011;56478;50.982;7.032;2023-04-03T01:14:53;5.97;;;3.45;;
68176;SDS011;56478;50.982;7.032;2023-04-03T01:25:15;4.47;;;3.55;;
68176;SDS011;56478;50.982;7.032;2023-04-03T01:27:40;4.03;;;3.63;;
68176;SDS011;56478;50.982;7.032;2023-04-03T01:30:06;3.60;;;3.30;;
68176;SDS011;56478;50.982;7.032;2023-04-03T01:32:32;4.38;;;3.95;;
68176;SDS011;56478;50.982;7.032;2023-04-03T01:34:57;4.40;;;3.67;;
68176;SDS011;56478;50.982;7.032;2023-04-03T01:37:23;3.92;;;3.63;;
68176;SDS011;56478;50.982;7.032;2023-04-03T01:39:48;4.97;;;3.42;;
68176;SDS011;56478;50.982;7.032;2023-04-03T01:42:14;4.25;;;3.85;;
68176;SDS011;56478;50.982;7.032;2023-04-03T01:44:41;5.68;;;3.65;;
68176;SDS011;56478;50.982;7.032;2023-04-03T01:47:06;4.45;;;3.80;;
68176;SDS011;56478;50.982;7.032;2023-04-03T01:49:32;4.30;;;3.72;;
68176;SDS011;56478;50.982;7.032;2023-04-03T01:51:58;5.45;;;3.80;;
68176;SDS011;56478;50.982;7.032;2023-04-03T01:54:23;3.97;;;3.60;;
68176;SDS011;56478;50.982;7.032;2023-04-03T01:56:48;3.90;;;3.50;;
68176;SDS011;56478;50.982;7.032;2023-04-03T01:59:14;4.03;;;3.70;;
68176;SDS011;56478;50.982;7.032;2023-04-03T02:01:42;4.15;;;3.70;;
68176;SDS011;56478;50.982;7.032;2023-04-03T02:04:10;5.53;;;3.63;;
68176;SDS011;56478;50.982;7.032;2023-04-03T02:06:36;3.90;;;3.55;;
68176;SDS011;56478;50.982;7.032;2023-04-03T02:09:02;3.90;;;3.47;;
68176;SDS011;56478;50.982;7.032;2023-04-03T02:11:28;4.32;;;3.92;;
68176;SDS011;56478;50.982;7.032;2023-04-03T02:13:53;5.88;;;3.70;;
68176;SDS011;56478;50.982;7.032;2023-04-03T02:16:19;4.65;;;3.90;;
68176;SDS011;56478;50.982;7.032;2023-04-03T02:18:44;4.20;;;3.80;;
68176;SDS011;56478;50.982;7.032;2023-04-03T02:21:09;4.47;;;3.88;;
68176;SDS011;56478;50.982;7.032;2023-04-03T02:23:35;4.95;;;3.65;;
68176;SDS011;56478;50.982;7.032;2023-04-03T02:26:06;5.20;;;3.80;;
68176;SDS011;56478;50.982;7.032;2023-04-03T02:28:36;4.75;;;3.67;;
68176;SDS011;56478;50.982;7.032;2023-04-03T02:31:02;4.43;;;3.70;;
68176;SDS011;56478;50.982;7.032;2023-04-03T02:33:28;5.35;;;3.97;;
68176;SDS011;56478;50.982;7.032;2023-04-03T02:35:54;6.72;;;3.72;;
68176;SDS011;56478;50.982;7.032;2023-04-03T02:38:20;5.35;;;3.92;;
68176;SDS011;56478;50.982;7.032;2023-04-03T02:40:46;6.45;;;3.85;;
68176;SDS011;56478;50.982;7.032;2023-04-03T02:43:12;4.07;;;3.78;;
68176;SDS011;56478;50.982;7.032;2023-04-03T02:45:37;4.30;;;3.90;;
68176;SDS011;56478;50.982;7.032;2023-04-03T02:48:03;4.80;;;3.88;;
68176;SDS011;56478;50.982;7.032;2023-04-03T02:50:28;6.40;;;3.83;;
68176;SDS011;56478;50.982;7.032;2023-04-03T02:52:54;4.85;;;3.70;;
68176;SDS011;56478;50.982;7.032;2023-04-03T02:55:20;4.18;;;3.78;;
68176;SDS011;56478;50.982;7.032;2023-04-03T02:57:45;4.38;;;3.53;;
68176;SDS011;56478;50.982;7.032;2023-04-03T03:00:11;4.25;;;3.50;;
68176;SDS011;56478;50.982;7.032;2023-04-03T03:02:37;4.05;;;3.65;;
68176;SDS011;56478;50.982;7.032;2023-04-03T03:05:02;4.07;;;3.45;;
68176;SDS011;56478;50.982;7.032;2023-04-03T03:07:28;4.07;;;3.67;;
68176;SDS011;56478;50.982;7.032;2023-04-03T03:09:53;5.45;;;3.55;;
68176;SDS011;56478;50.982;7.032;2023-04-03T03:12:19;4.10;;;3.75;;
68176;SDS011;56478;50.982;7.032;2023-04-03T03:14:46;4.70;;;3.30;;
68176;SDS011;56478;50.982;7.032;2023-04-03T03:17:12;3.80;;;3.40;;
68176;SDS011;56478;50.982;7.032;2023-04-03T03:19:38;4.53;;;3.00;;
68176;SDS011;56478;50.982;7.032;2023-04-03T03:22:03;3.60;;;3.30;;
68176;SDS011;56478;50.982;7.032;2023-04-03T03:24:29;3.45;;;3.15;;
68176;SDS011;56478;50.982;7.032;2023-04-03T03:26:54;4.45;;;3.25;;
68176;SDS011;56478;50.982;7.032;2023-04-03T03:29:20;5.13;;;3.20;;
68176;SDS011;56478;50.982;7.032;2023-04-03T03:31:46;3.55;;;3.05;;
68176;SDS011;56478;50.982;7.032;2023-04-03T03:34:11;3.67;;;3.08;;
68176;SDS011;56478;50.982;7.032;2023-04-03T03:36:37;4.80;;;3.05;;
68176;SDS011;56478;50.982;7.032;2023-04-03T03:39:02;5.60;;;2.90;;
68176;SDS011;56478;50.982;7.032;2023-04-03T03:41:28;3.63;;;3.10;;
68176;SDS011;56478;50.982;7.032;2023-04-03T03:43:53;3.55;;;2.65;;
68176;SDS011;56478;50.982;7.032;2023-04-03T03:46:19;3.35;;;2.80;;
68176;SDS011;56478;50.982;7.032;2023-04-03T03:48:44;2.80;;;2.60;;
68176;SDS011;56478;50.982;7.032;2023-04-03T03:51:10;4.38;;;2.50;;
68176;SDS011;56478;50.982;7.032;2023-04-03T03:53:35;2.75;;;2.55;;
68176;SDS011;56478;50.982;7.032;2023-04-03T03:56:01;2.60;;;2.40;;
68176;SDS011;56478;50.982;7.032;2023-04-03T03:58:27;3.72;;;2.60;;
68176;SDS011;56478;50.982;7.032;2023-04-03T04:00:52;3.40;;;2.55;;
68176;SDS011;56478;50.982;7.032;2023-04-03T04:03:18;3.55;;;2.60;;
68176;SDS011;56478;50.982;7.032;2023-04-03T04:05:43;4.68;;;2.53;;
68176;SDS011;56478;50.982;7.032;2023-04-03T04:08:09;4.47;;;2.50;;
68176;SDS011;56478;50.982;7.032;2023-04-03T04:10:35;5.40;;;2.45;;
68176;SDS011;56478;50.982;7.032;2023-04-03T04:13:02;3.00;;;2.50;;
68176;SDS011;56478;50.982;7.032;2023-04-03T04:15:27;3.92;;;2.40;;
68176;SDS011;56478;50.982;7.032;2023-04-03T04:17:54;3.47;;;2.63;;
68176;SDS011;56478;50.982;7.032;2023-04-03T04:20:20;4.20;;;2.55;;
68176;SDS011;56478;50.982;7.032;2023-04-03T04:22:45;2.78;;;2.28;;
68176;SDS011;56478;50.982;7.032;2023-04-03T04:25:11;3.97;;;2.50;;
68176;SDS011;56478;50.982;7.032;2023-04-03T04:27:36;2.53;;;2.30;;
68176;SDS011;56478;50.982;7.032;2023-04-03T04:30:03;2.08;;;1.98;;
68176;SDS011;56478;50.982;7.032;2023-04-03T04:32:29;2.97;;;2.10;;
68176;SDS011;56478;50.982;7.032;2023-04-03T04:34:55;1.95;;;1.85;;
68176;SDS011;56478;50.982;7.032;2023-04-03T04:37:20;2.75;;;2.30;;
68176;SDS011;56478;50.982;7.032;2023-04-03T04:39:46;3.05;;;2.38;;
68176;SDS011;56478;50.982;7.032;2023-04-03T04:42:11;3.92;;;2.20;;
68176;SDS011;56478;50.982;7.032;2023-04-03T04:44:38;5.03;;;2.03;;
68176;SDS011;56478;50.982;7.032;2023-04-03T04:47:04;3.60;;;2.10;;
68176;SDS011;56478;50.982;7.032;2023-04-03T04:49:30;4.38;;;2.20;;
68176;SDS011;56478;50.982;7.032;2023-04-03T04:51:55;4.60;;;2.25;;
68176;SDS011;56478;50.982;7.032;2023-04-03T04:54:21;2.72;;;2.10;;
68176;SDS011;56478;50.982;7.032;2023-04-03T04:56:46;4.05;;;2.42;;
68176;SDS011;56478;50.982;7.032;2023-04-03T04:59:12;4.68;;;2.78;;
68176;SDS011;56478;50.982;7.032;2023-04-03T05:01:37;3.47;;;2.88;;
68176;SDS011;56478;50.982;7.032;2023-04-03T05:04:03;2.40;;;2.20;;
68176;SDS011;56478;50.982;7.032;2023-04-03T05:06:28;2.40;;;2.20;;
68176;SDS011;56478;50.982;7.032;2023-04-03T05:08:55;4.38;;;2.28;;
68176;SDS011;56478;50.982;7.032;2023-04-03T05:11:21;2.72;;;2.53;;
68176;SDS011;56478;50.982;7.032;2023-04-03T05:13:46;4.47;;;2.30;;
68176;SDS011;56478;50.982;7.032;2023-04-03T05:16:12;5.40;;;2.10;;
68176;SDS011;56478;50.982;7.032;2023-04-03T05:18:37;3.22;;;2.10;;
68176;SDS011;56478;50.982;7.032;2023-04-03T05:21:03;4.32;;;2.13;;
68176;SDS011;56478;50.982;7.032;2023-04-03T05:23:28;3.22;;;2.10;;
68176;SDS011;56478;50.982;7.032;2023-04-03T05:25:54;2.38;;;2.17;;
68176;SDS011;56478;50.982;7.032;2023-04-03T05:28:19;2.90;;;2.20;;
68176;SDS011;56478;50.982;7.032;2023-04-03T05:30:45;3.42;;;2.35;;
68176;SDS011;56478;50.982;7.032;2023-04-03T05:33:10;4.80;;;2.03;;
68176;SDS011;56478;50.982;7.032;2023-04-03T05:35:37;4.20;;;2.38;;
68176;SDS011;56478;50.982;7.032;2023-04-03T05:38:06;3.88;;;2.30;;
68176;SDS011;56478;50.982;7.032;2023-04-03T05:40:32;3.00;;;2.10;;
68176;SDS011;56478;50.982;7.032;2023-04-03T05:42:57;2.85;;;2.00;;
68176;SDS011;56478;50.982;7.032;2023-04-03T05:45:23;3.55;;;2.20;;
68176;SDS011;56478;50.982;7.032;2023-04-03T05:47:48;4.45;;;2.20;;
68176;SDS011;56478;50.982;7.032;2023-04-03T05:50:14;2.63;;;2.15;;
68176;SDS011;56478;50.982;7.032;2023-04-03T05:52:40;4.78;;;2.33;;
68176;SDS011;56478;50.982;7.032;2023-04-03T05:55:09;2.40;;;2.15;;
68176;SDS011;56478;50.982;7.032;2023-04-03T05:57:34;4.30;;;2.20;;
68176;SDS011;56478;50.982;7.032;2023-04-03T06:00:00;2.85;;;2.10;;
68176;SDS011;56478;50.982;7.032;2023-04-03T06:02:25;3.38;;;2.30;;
68176;SDS011;56478;50.982;7.032;2023-04-03T06:04:52;2.70;;;1.80;;
68176;SDS011;56478;50.982;7.032;2023-04-03T06:07:18;3.20;;;2.00;;
68176;SDS011;56478;50.982;7.032;2023-04-03T06:09:48;2.30;;;2.10;;
68176;SDS011;56478;50.982;7.032;2023-04-03T06:12:14;5.03;;;2.25;;
68176;SDS011;56478;50.982;7.032;2023-04-03T06:14:40;2.58;;;2.33;;
68176;SDS011;56478;50.982;7.032;2023-04-03T06:17:06;2.53;;;1.98;;
68176;SDS011;56478;50.982;7.032;2023-04-03T06:19:34;4.95;;;2.35;;
68176;SDS011;56478;50.982;7.032;2023-04-03T06:22:00;2.33;;;1.98;;
68176;SDS011;56478;50.982;7.032;2023-04-03T06:24:26;2.88;;;2.00;;
68176;SDS011;56478;50.982;7.032;2023-04-03T06:26:52;3.28;;;2.05;;
68176;SDS011;56478;50.982;7.032;2023-04-03T06:29:18;4.55;;;1.92;;
68176;SDS011;56478;50.982;7.032;2023-04-03T06:31:45;3.15;;;1.75;;
68176;SDS011;56478;50.982;7.032;2023-04-03T06:34:11;2.20;;;1.80;;
68176;SDS011;56478;50.982;7.032;2023-04-03T06:36:37;3.15;;;2.10;;
68176;SDS011;56478;50.982;7.032;2023-04-03T06:39:03;3.60;;;2.05;;
68176;SDS011;56478;50.982;7.032;2023-04-03T06:41:29;2.58;;;2.10;;
68176;SDS011;56478;50.982;7.032;2023-04-03T06:43:55;2.10;;;1.90;;
68176;SDS011;56478;50.982;7.032;2023-04-03T06:46:22;2.53;;;1.83;;
68176;SDS011;56478;50.982;7.032;2023-04-03T06:48:49;2.67;;;1.83;;
68176;SDS011;56478;50.982;7.032;2023-04-03T06:51:17;2.05;;;1.73;;
68176;SDS011;56478;50.982;7.032;2023-04-03T06:53:44;2.60;;;1.88;;
68176;SDS011;56478;50.982;7.032;2023-04-03T06:56:10;2.85;;;1.70;;
68176;SDS011;56478;50.982;7.032;2023-04-03T06:58:36;3.53;;;2.13;;
68176;SDS011;56478;50.982;7.032;2023-04-03T07:01:02;3.00;;;1.85;;
68176;SDS011;56478;50.982;7.032;2023-04-03T07:03:28;2.25;;;1.63;;
68176;SDS011;56478;50.982;7.032;2023-04-03T07:05:53;2.30;;;1.67;;
68176;SDS011;56478;50.982;7.032;2023-04-03T07:08:20;3.78;;;1.90;;
68176;SDS011;56478;50.982;7.032;2023-04-03T07:10:46;2.15;;;1.75;;
68176;SDS011;56478;50.982;7.032;2023-04-03T07:13:11;2.78;;;1.80;;
68176;SDS011;56478;50.982;7.032;2023-04-03T07:15:37;4.60;;;1.83;;
68176;SDS011;56478;50.982;7.032;2023-04-03T07:18:02;3.25;;;1.75;;
68176;SDS011;56478;50.982;7.032;2023-04-03T07:20:29;2.50;;;1.63;;
68176;SDS011;56478;50.982;7.032;2023-04-03T07:22:55;4.10;;;1.80;;
68176;SDS011;56478;50.982;7.032;2023-04-03T07:25:20;3.15;;;2.10;;
68176;SDS011;56478;50.982;7.032;2023-04-03T07:27:46;3.00;;;1.88;;
68176;SDS011;56478;50.982;7.032;2023-04-03T07:30:12;1.75;;;1.65;;
68176;SDS011;56478;50.982;7.032;2023-04-03T07:32:39;2.90;;;1.90;;
68176;SDS011;56478;50.982;7.032;2023-04-03T07:35:04;2.47;;;1.80;;
68176;SDS011;56478;50.982;7.032;2023-04-03T07:37:30;2.10;;;1.65;;
68176;SDS011;56478;50.982;7.032;2023-04-03T07:39:55;6.78;;;2.40;;
68176;SDS011;56478;50.982;7.032;2023-04-03T07:42:22;3.35;;;2.03;;
68176;SDS011;56478;50.982;7.032;2023-04-03T07:44:47;4.03;;;1.92;;
68176;SDS011;56478;50.982;7.032;2023-04-03T07:47:13;3.58;;;2.30;;
68176;SDS011;56478;50.982;7.032;2023-04-03T07:49:41;2.45;;;1.73;;
68176;SDS011;56478;50.982;7.032;2023-04-03T07:52:06;6.18;;;2.15;;
68176;SDS011;56478;50.982;7.032;2023-04-03T07:54:33;3.72;;;1.88;;
68176;SDS011;56478;50.982;7.032;2023-04-03T07:56:59;1.85;;;1.73;;
68176;SDS011;56478;50.982;7.032;2023-04-03T07:59:25;5.57;;;1.80;;
68176;SDS011;56478;50.982;7.032;2023-04-03T08:01:50;3.92;;;2.03;;
68176;SDS011;56478;50.982;7.032;2023-04-03T08:04:16;2.28;;;1.90;;
68176;SDS011;56478;50.982;7.032;2023-04-03T08:06:41;3.33;;;1.77;;
68176;SDS011;56478;50.982;7.032;2023-04-03T08:09:07;3.42;;;1.95;;
68176;SDS011;56478;50.982;7.032;2023-04-03T08:11:33;2.25;;;1.70;;
68176;SDS011;56478;50.982;7.032;2023-04-03T08:13:59;4.00;;;1.90;;
68176;SDS011;56478;50.982;7.032;2023-04-03T08:16:24;2.85;;;1.83;;
68176;SDS011;56478;50.982;7.032;2023-04-03T08:18:53;2.63;;;1.92;;
68176;SDS011;56478;50.982;7.032;2023-04-03T08:21:19;4.25;;;2.00;;
68176;SDS011;56478;50.982;7.032;2023-04-03T08:23:47;2.10;;;1.88;;
68176;SDS011;56478;50.982;7.032;2023-04-03T08:26:16;2.40;;;1.98;;
68176;SDS011;56478;50.982;7.032;2023-04-03T08:28:43;3.13;;;1.85;;
68176;SDS011;56478;50.982;7.032;2023-04-03T08:31:10;3.60;;;2.10;;
68176;SDS011;56478;50.982;7.032;2023-04-03T08:33:38;2.03;;;1.80;;
68176;SDS011;56478;50.982;7.032;2023-04-03T08:36:05;4.63;;;1.92;;
68176;SDS011;56478;50.982;7.032;2023-04-03T08:38:33;4.75;;;1.90;;
68176;SDS011;56478;50.982;7.032;2023-04-03T08:41:09;1.73;;;1.60;;
68176;SDS011;56478;50.982;7.032;2023-04-03T08:49:17;2.05;;;1.60;;
68176;SDS011;56478;50.982;7.032;2023-04-03T08:52:12;2.35;;;1.60;;
68176;SDS011;56478;50.982;7.032;2023-04-03T08:54:48;1.83;;;1.60;;
68176;SDS011;56478;50.982;7.032;2023-04-03T08:59:51;2.20;;;1.60;;
68176;SDS011;56478;50.982;7.032;2023-04-03T09:02:29;2.67;;;1.70;;
68176;SDS011;56478;50.982;7.032;2023-04-03T09:04:58;2.40;;;1.98;;
68176;SDS011;56478;50.982;7.032;2023-04-03T09:07:35;2.80;;;1.50;;
68176;SDS011;56478;50.982;7.032;2023-04-03T09:10:07;2.20;;;1.60;;
68176;SDS011;56478;50.982;7.032;2023-04-03T09:12:38;2.72;;;1.73;;
68176;SDS011;56478;50.982;7.032;2023-04-03T09:15:11;5.95;;;2.03;;
68176;SDS011;56478;50.982;7.032;2023-04-03T09:26:11;14.15;;;2.30;;
68176;SDS011;56478;50.982;7.032;2023-04-03T09:28:41;2.33;;;2.00;;
68176;SDS011;56478;50.982;7.032;2023-04-03T09:33:59;3.13;;;1.83;;
68176;SDS011;56478;50.982;7.032;2023-04-03T09:41:59;2.20;;;1.67;;
68176;SDS011;56478;50.982;7.032;2023-04-03T09:44:42;2.70;;;1.67;;
68176;SDS011;56478;50.982;7.032;2023-04-03T09:47:18;1.98;;;1.65;;
68176;SDS011;56478;50.982;7.032;2023-04-03T09:52:47;2.25;;;1.90;;
68176;SDS011;56478;50.982;7.032;2023-04-03T09:55:16;2.83;;;1.73;;
68176;SDS011;56478;50.982;7.032;2023-04-03T09:57:44;2.15;;;1.63;;
68176;SDS011;56478;50.982;7.032;2023-04-03T10:00:22;3.13;;;1.85;;
68176;SDS011;56478;50.982;7.032;2023-04-03T10:02:51;1.92;;;1.80;;
68176;SDS011;56478;50.982;7.032;2023-04-03T10:05:25;1.85;;;1.60;;
68176;SDS011;56478;50.982;7.032;2023-04-03T10:10:39;4.10;;;1.98;;
68176;SDS011;56478;50.982;7.032;2023-04-03T10:13:13;4.13;;;1.70;;
68176;SDS011;56478;50.982;7.032;2023-04-03T10:16:29;3.03;;;1.83;;
68176;SDS011;56478;50.982;7.032;2023-04-03T10:18:44;2.08;;;1.70;;
68176;SDS011;56478;50.982;7.032;2023-04-03T10:34:52;2.30;;;1.60;;
68176;SDS011;56478;50.982;7.032;2023-04-03T10:37:26;1.65;;;1.55;;
68176;SDS011;56478;50.982;7.032;2023-04-03T10:40:02;2.00;;;1.70;;
68176;SDS011;56478;50.982;7.032;2023-04-03T10:42:55;2.97;;;1.70;;
68176;SDS011;56478;50.982;7.032;2023-04-03T10:48:25;2.17;;;1.60;;
68176;SDS011;56478;50.982;7.032;2023-04-03T10:56:30;1.60;;;1.42;;
68176;SDS011;56478;50.982;7.032;2023-04-03T10:58:58;1.45;;;1.35;;
68176;SDS011;56478;50.982;7.032;2023-04-03T11:01:41;2.63;;;1.20;;
68176;SDS011;56478;50.982;7.032;2023-04-03T11:04:09;1.63;;;1.30;;
68176;SDS011;56478;50.982;7.032;2023-04-03T11:06:37;1.55;;;1.30;;
68176;SDS011;56478;50.982;7.032;2023-04-03T11:09:15;1.40;;;1.30;;
68176;SDS011;56478;50.982;7.032;2023-04-03T11:11:51;2.83;;;1.30;;
68176;SDS011;56478;50.982;7.032;2023-04-03T11:14:24;1.30;;;1.20;;
68176;SDS011;56478;50.982;7.032;2023-04-03T11:17:14;2.75;;;1.30;;
68176;SDS011;56478;50.982;7.032;2023-04-03T11:19:45;2.53;;;1.23;;
68176;SDS011;56478;50.982;7.032;2023-04-03T11:24:51;2.45;;;1.40;;
68176;SDS011;56478;50.982;7.032;2023-04-03T11:27:23;2.58;;;1.67;;
68176;SDS011;56478;50.982;7.032;2023-04-03T11:29:50;2.40;;;1.30;;
68176;SDS011;56478;50.982;7.032;2023-04-03T11:32:27;1.40;;;1.30;;
68176;SDS011;56478;50.982;7.032;2023-04-03T11:34:56;2.63;;;1.25;;
68176;SDS011;56478;50.982;7.032;2023-04-03T11:42:47;1.77;;;1.27;;
68176;SDS011;56478;50.982;7.032;2023-04-03T11:45:21;1.23;;;1.15;;
68176;SDS011;56478;50.982;7.032;2023-04-03T11:53:11;1.63;;;1.27;;
68176;SDS011;56478;50.982;7.032;2023-04-03T11:55:53;1.45;;;1.10;;
68176;SDS011;56478;50.982;7.032;2023-04-03T11:58:23;1.35;;;1.13;;
68176;SDS011;56478;50.982;7.032;2023-04-03T12:50:49;2.55;;;1.42;;
68176;SDS011;56478;50.982;7.032;2023-04-03T12:53:19;2.10;;;1.17;;
68176;SDS011;56478;50.982;7.032;2023-04-03T12:55:53;1.02;;;1.02;;
68176;SDS011;56478;50.982;7.032;2023-04-03T12:58:26;1.02;;;1.02;;
68176;SDS011;56478;50.982;7.032;2023-04-03T13:03:33;1.00;;;1.00;;
68176;SDS011;56478;50.982;7.032;2023-04-03T13:06:01;2.95;;;1.45;;
68176;SDS011;56478;50.982;7.032;2023-04-03T13:08:29;2.00;;;1.40;;
68176;SDS011;56478;50.982;7.032;2023-04-03T13:11:02;1.27;;;1.17;;
68176;SDS011;56478;50.982;7.032;2023-04-03T13:13:33;1.30;;;1.20;;
68176;SDS011;56478;50.982;7.032;2023-04-03T13:15:58;1.67;;;1.27;;
68176;SDS011;56478;50.982;7.032;2023-04-03T13:18:28;2.78;;;1.30;;
68176;SDS011;56478;50.982;7.032;2023-04-03T13:21:08;4.88;;;1.23;;
68176;SDS011;56478;50.982;7.032;2023-04-03T13:23:40;6.20;;;1.70;;
68176;SDS011;56478;50.982;7.032;2023-04-03T13:26:09;3.50;;;1.50;;
68176;SDS011;56478;50.982;7.032;2023-04-03T13:28:36;2.95;;;1.30;;
68176;SDS011;56478;50.982;7.032;2023-04-03T13:31:08;4.50;;;1.80;;
68176;SDS011;56478;50.982;7.032;2023-04-03T13:33:58;2.53;;;1.30;;
68176;SDS011;56478;50.982;7.032;2023-04-03T13:36:31;2.97;;;1.25;;
68176;SDS011;56478;50.982;7.032;2023-04-03T13:39:06;1.75;;;1.10;;
68176;SDS011;56478;50.982;7.032;2023-04-03T13:41:48;1.25;;;1.17;;
68176;SDS011;56478;50.982;7.032;2023-04-03T13:46:51;4.13;;;1.60;;
68176;SDS011;56478;50.982;7.032;2023-04-03T13:51:47;1.88;;;1.10;;
68176;SDS011;56478;50.982;7.032;2023-04-03T13:56:54;1.42;;;1.30;;
68176;SDS011;56478;50.982;7.032;2023-04-03T13:59:27;1.50;;;1.40;;
68176;SDS011;56478;50.982;7.032;2023-04-03T14:02:09;1.40;;;1.30;;
68176;SDS011;56478;50.982;7.032;2023-04-03T14:07:13;1.63;;;1.40;;
68176;SDS011;56478;50.982;7.032;2023-04-03T14:09:41;1.50;;;1.40;;
68176;SDS011;56478;50.982;7.032;2023-04-03T14:14:56;1.42;;;1.33;;
68176;SDS011;56478;50.982;7.032;2023-04-03T14:17:25;1.35;;;1.25;;
68176;SDS011;56478;50.982;7.032;2023-04-03T14:22:19;2.67;;;1.40;;
68176;SDS011;56478;50.982;7.032;2023-04-03T14:24:53;2.88;;;1.55;;
68176;SDS011;56478;50.982;7.032;2023-04-03T14:27:21;1.83;;;1.42;;
68176;SDS011;56478;50.982;7.032;2023-04-03T14:29:50;1.58;;;1.48;;
68176;SDS011;56478;50.982;7.032;2023-04-03T14:32:19;2.97;;;1.30;;
68176;SDS011;56478;50.982;7.032;2023-04-03T14:34:45;2.28;;;1.45;;
68176;SDS011;56478;50.982;7.032;2023-04-03T14:37:22;2.78;;;1.40;;
68176;SDS011;56478;50.982;7.032;2023-04-03T14:39:50;1.40;;;1.20;;
68176;SDS011;56478;50.982;7.032;2023-04-03T14:42:19;1.57;;;1.40;;
68176;SDS011;56478;50.982;7.032;2023-04-03T14:44:48;1.60;;;1.50;;
68176;SDS011;56478;50.982;7.032;2023-04-03T14:47:16;2.08;;;1.42;;
68176;SDS011;56478;50.982;7.032;2023-04-03T14:49:45;2.35;;;1.40;;
68176;SDS011;56478;50.982;7.032;2023-04-03T14:52:21;2.92;;;1.30;;
68176;SDS011;56478;50.982;7.032;2023-04-03T14:54:49;3.70;;;1.45;;
68176;SDS011;56478;50.982;7.032;2023-04-03T14:57:15;1.27;;;1.15;;
68176;SDS011;56478;50.982;7.032;2023-04-03T14:59:41;1.73;;;1.40;;
68176;SDS011;56478;50.982;7.032;2023-04-03T15:02:50;1.40;;;1.30;;
68176;SDS011;56478;50.982;7.032;2023-04-03T15:04:57;1.73;;;1.58;;
68176;SDS011;56478;50.982;7.032;2023-04-03T15:07:24;1.02;;;1.02;;
68176;SDS011;56478;50.982;7.032;2023-04-03T15:09:52;1.60;;;1.40;;
68176;SDS011;56478;50.982;7.032;2023-04-03T15:12:17;1.45;;;1.35;;
68176;SDS011;56478;50.982;7.032;2023-04-03T15:14:43;2.45;;;1.42;;
68176;SDS011;56478;50.982;7.032;2023-04-03T15:17:14;3.20;;;1.30;;
68176;SDS011;56478;50.982;7.032;2023-04-03T15:19:42;2.17;;;1.60;;
68176;SDS011;56478;50.982;7.032;2023-04-03T15:22:11;2.50;;;1.40;;
68176;SDS011;56478;50.982;7.032;2023-04-03T15:24:39;2.40;;;1.40;;
68176;SDS011;56478;50.982;7.032;2023-04-03T15:27:04;1.52;;;1.40;;
68176;SDS011;56478;50.982;7.032;2023-04-03T15:29:30;1.30;;;1.20;;
68176;SDS011;56478;50.982;7.032;2023-04-03T15:31:55;1.52;;;1.42;;
68176;SDS011;56478;50.982;7.032;2023-04-03T15:34:21;1.60;;;1.27;;
68176;SDS011;56478;50.982;7.032;2023-04-03T15:36:46;1.15;;;1.15;;
68176;SDS011;56478;50.982;7.032;2023-04-03T15:39:12;3.03;;;1.65;;
68176;SDS011;56478;50.982;7.032;2023-04-03T15:41:37;1.98;;;1.30;;
68176;SDS011;56478;50.982;7.032;2023-04-03T15:44:03;3.95;;;1.50;;
68176;SDS011;56478;50.982;7.032;2023-04-03T15:46:28;2.08;;;1.33;;
68176;SDS011;56478;50.982;7.032;2023-04-03T15:48:54;2.25;;;1.40;;
68176;SDS011;56478;50.982;7.032;2023-04-03T15:51:20;2.08;;;1.42;;
68176;SDS011;56478;50.982;7.032;2023-04-03T15:53:46;2.42;;;1.30;;
68176;SDS011;56478;50.982;7.032;2023-04-03T15:56:11;1.65;;;1.30;;
68176;SDS011;56478;50.982;7.032;2023-04-03T15:58:37;5.07;;;1.42;;
68176;SDS011;56478;50.982;7.032;2023-04-03T16:01:02;1.67;;;1.45;;
68176;SDS011;56478;50.982;7.032;2023-04-03T16:03:28;2.90;;;1.40;;
68176;SDS011;56478;50.982;7.032;2023-04-03T16:05:54;1.70;;;1.45;;
68176;SDS011;56478;50.982;7.032;2023-04-03T16:08:20;2.58;;;1.50;;
68176;SDS011;56478;50.982;7.032;2023-04-03T16:10:46;2.58;;;1.50;;
68176;SDS011;56478;50.982;7.032;2023-04-03T16:13:12;1.80;;;1.50;;
68176;SDS011;56478;50.982;7.032;2023-04-03T16:15:38;1.50;;;1.40;;
68176;SDS011;56478;50.982;7.032;2023-04-03T16:18:05;1.40;;;1.30;;
68176;SDS011;56478;50.982;7.032;2023-04-03T16:20:31;1.85;;;1.58;;
68176;SDS011;56478;50.982;7.032;2023-04-03T16:22:57;2.22;;;1.38;;
68176;SDS011;56478;50.982;7.032;2023-04-03T16:25:24;3.38;;;1.40;;
68176;SDS011;56478;50.982;7.032;2023-04-03T16:27:50;1.77;;;1.40;;
68176;SDS011;56478;50.982;7.032;2023-04-03T16:30:15;2.78;;;1.30;;
68176;SDS011;56478;50.982;7.032;2023-04-03T16:32:41;1.48;;;1.38;;
68176;SDS011;56478;50.982;7.032;2023-04-03T16:35:07;1.45;;;1.35;;
68176;SDS011;56478;50.982;7.032;2023-04-03T16:37:35;2.70;;;1.60;;
68176;SDS011;56478;50.982;7.032;2023-04-03T16:40:01;4.03;;;1.75;;
68176;SDS011;56478;50.982;7.032;2023-04-03T16:42:27;1.50;;;1.40;;
68176;SDS011;56478;50.982;7.032;2023-04-03T16:44:53;1.48;;;1.38;;
68176;SDS011;56478;50.982;7.032;2023-04-03T16:47:18;1.50;;;1.40;;
68176;SDS011;56478;50.982;7.032;2023-04-03T16:49:45;1.98;;;1.50;;
68176;SDS011;56478;50.982;7.032;2023-04-03T16:52:11;2.20;;;1.30;;
68176;SDS011;56478;50.982;7.032;2023-04-03T16:54:36;1.65;;;1.40;;
68176;SDS011;56478;50.982;7.032;2023-04-03T16:57:02;2.10;;;1.42;;
68176;SDS011;56478;50.982;7.032;2023-04-03T16:59:28;1.90;;;1.50;;
68176;SDS011;56478;50.982;7.032;2023-04-03T17:01:53;1.67;;;1.40;;
68176;SDS011;56478;50.982;7.032;2023-04-03T17:04:18;3.67;;;1.60;;
68176;SDS011;56478;50.982;7.032;2023-04-03T17:06:44;3.10;;;1.38;;
68176;SDS011;56478;50.982;7.032;2023-04-03T17:09:10;2.67;;;1.50;;
68176;SDS011;56478;50.982;7.032;2023-04-03T17:11:36;3.28;;;1.48;;
68176;SDS011;56478;50.982;7.032;2023-04-03T17:14:03;3.00;;;1.40;;
68176;SDS011;56478;50.982;7.032;2023-04-03T17:16:29;2.15;;;1.40;;
68176;SDS011;56478;50.982;7.032;2023-04-03T17:18:57;1.58;;;1.30;;
68176;SDS011;56478;50.982;7.032;2023-04-03T17:21:22;1.70;;;1.30;;